Address 0x36a90080f9277853d9017b28bdd0b07b0e55c41f

 
 
Txn Hash Method
Block
From
To
Value [Txn Fee]
0x83c3ee067f0253a5f17a846a9c951bdda055185b771692bec357ec1ce2285cf6Transfer241970742022-01-26 19:34:20115 days 9 hrs ago0x36a90080f9277853d9017b28bdd0b07b0e55c41fOUT0xaa9670f778fd6e686457f7ad10c5abfdd860219e6 MATIC0.002211996489 105.333166145
0x1ece70c659d1ba33ac31cd1829f9a6a7ad70c77aaafcc504be3d2c52602bec9eTransfer240811402022-01-23 22:07:30118 days 7 hrs ago0x36a90080f9277853d9017b28bdd0b07b0e55c41fOUT USD Coin0 MATIC0.001570053544 37.683696824
0x309de9d7f5fdd4b290d387e868670d68938971c639fa41c8f21fb1213c03b1ff0x415565b0240808672022-01-23 21:58:08118 days 7 hrs ago0x36a90080f9277853d9017b28bdd0b07b0e55c41fOUT 0x: Exchange Proxy0 MATIC0.014877958 34
0x8032b4fc1df71318a31dabbf2cb469ae562699a8baaf8a60701fe1486ddfff89Swap Exact Token...240808112022-01-23 21:56:12118 days 7 hrs ago0x36a90080f9277853d9017b28bdd0b07b0e55c41fOUT SushiSwap: Router0 MATIC0.004152124967 32.501702278
0x3ae1fd81cf7f232fa3b4a64d3bd572b6001f47798ffc1cd376a0c5d9862d295c0x415565b0239651852022-01-20 23:39:15121 days 5 hrs ago0x36a90080f9277853d9017b28bdd0b07b0e55c41fOUT 0x: Exchange Proxy0 MATIC0.2451715 490
0xf2b392dbc3c90b69efe4a5273117d3b12cad70236e8638f0b43105a33e8e6527Approve239565942022-01-20 18:43:03121 days 10 hrs ago0x36a90080f9277853d9017b28bdd0b07b0e55c41fOUT Mapper: USDT Stablecoin0 MATIC0.007631624302 146.559077861
0x887660ee396ce6a805f55838792b2aebec9b5dc6c6a0d334474a1eaa4cf68434Swap Exact Token...239304802022-01-20 3:14:48122 days 1 hr ago0x36a90080f9277853d9017b28bdd0b07b0e55c41fOUT SushiSwap: Router0 MATIC0.03278702507 193.137518085
0x5c839e86640d98f6e288c58e190b1d0e2924ebde344cec2c6f4d9981cb3027dbApprove239304692022-01-20 3:14:26122 days 1 hr ago0x36a90080f9277853d9017b28bdd0b07b0e55c41fOUT 0x9a71012b13ca4d3d0cdc72a177df3ef03b0e76a30 MATIC0.008260730515 158.640546073
0x81a7393d7fa1350d1f45e8799653c1497174a197ad047c7d13e0ce9b442b3cf5Swap Exact Token...239292892022-01-20 2:31:46122 days 2 hrs ago0x36a90080f9277853d9017b28bdd0b07b0e55c41fOUT SushiSwap: Router0 MATIC0.080147369081 472.316395083
0x317049f023f62a0a7654f9b6aefcd9fd6cc6a9d27b6222229e5425fa47958d45Approve239292782022-01-20 2:31:18122 days 2 hrs ago0x36a90080f9277853d9017b28bdd0b07b0e55c41fOUT 0x61bdd9c7d4df4bf47a4508c0c8245505f2af5b7b0 MATIC0.024808607065 476.428926591
0xb16ce3c71c670410f282c7578cfb15e22e823b343c25ba69138edca41547e313Swap Exact Token...239292502022-01-20 2:29:26122 days 2 hrs ago0x36a90080f9277853d9017b28bdd0b07b0e55c41fOUT SushiSwap: Router0 MATIC0.079668919643 469.463645943
0x710d4a82e33dc6b5ec5700afae3b789519dfa8df3acdf1ac4472d914307130f7Swap Exact Token...239289462022-01-20 2:15:40122 days 2 hrs ago0x36a90080f9277853d9017b28bdd0b07b0e55c41fOUT SushiSwap: Router0 MATIC0.006882512919 41.143176909
0xc5ee300efa03931cf65de6e8ef27ee7ebc9f6e804277854f0ac421893c409382Swap Exact Token...239289432022-01-20 2:15:34122 days 2 hrs ago0x36a90080f9277853d9017b28bdd0b07b0e55c41fOUT SushiSwap: Router0 MATIC0.000878244348 36.409947713
0x5fc88d3cdf14b1044060a801ced931164b854cb2cc7e79f3d1c793552d94bc880x415565b0239283882022-01-20 1:56:30122 days 3 hrs ago0x36a90080f9277853d9017b28bdd0b07b0e55c41fOUT 0x: Exchange Proxy0 MATIC0.204233262 678
0x884874f88357437397f0b75c453385d308e2de80e20e62c06b1869d215d0d124Approve239283882022-01-20 1:56:30122 days 3 hrs ago0x36a90080f9277853d9017b28bdd0b07b0e55c41fOUT Compound: COMP Token0 MATIC0.002154236991 41.370352417
0x23435ecaa8e5d9a4bc2f2f2b29516d421ffc9e5ca7ac38aec0772eeeab55acc2Swap Exact Token...239252912022-01-19 23:55:04122 days 5 hrs ago0x36a90080f9277853d9017b28bdd0b07b0e55c41fOUT SushiSwap: Router0 MATIC0.01069380817 63.01967217
0x9fb631ee7bc3fc93e530ff5213a34295887f890a0ed4bb4e4a5af37347a01c84Swap Exact Token...239252582022-01-19 23:53:58122 days 5 hrs ago0x36a90080f9277853d9017b28bdd0b07b0e55c41fOUT SushiSwap: Router0 MATIC0.01347661831 79.413432429
0x8aead1cc949baf146f7b9101275cfa2a647327788452f47655429ec2aa69fc47Swap Exact Token...239251722022-01-19 23:50:58122 days 5 hrs ago0x36a90080f9277853d9017b28bdd0b07b0e55c41fOUT QuickSwap: Router0 MATIC0.013677134957 58.948594324
0xdd828341ee63c143672fa8e418b86f986f0c7d248fcddd1f013615a5e0bdc6e6Swap Exact Token...239251522022-01-19 23:50:18122 days 5 hrs ago0x36a90080f9277853d9017b28bdd0b07b0e55c41fOUT QuickSwap: Router0 MATIC0.014210545725 59.420559834
0x394c2be9858d7ffb941a70d8a612b70d0ca0e3ce0038d8b60cea07425f91f4d1Swap Exact Token...239251212022-01-19 23:49:16122 days 5 hrs ago0x36a90080f9277853d9017b28bdd0b07b0e55c41fOUT QuickSwap: Router0 MATIC0.010324334333 65.509319949
0x992e20d4889b1cbbbb7e989d10706566f8ba1dbb672d7585bab1c15b40aa77a4Swap Exact Token...239250862022-01-19 23:48:02122 days 5 hrs ago0x36a90080f9277853d9017b28bdd0b07b0e55c41fOUT QuickSwap: Router0 MATIC0.007585998119 45.146957487
0x8ecaabdb23e2cb99962f929ca70155c4badff5317e2f476e3f77a7f4131a262aSwap Exact Token...239250572022-01-19 23:47:04122 days 5 hrs ago0x36a90080f9277853d9017b28bdd0b07b0e55c41fOUT QuickSwap: Router0 MATIC0.00791958649 47.260234227
0x24a815520f59142f81ec1a57975f69ec4cc4484ea2536e7c81d144ca63254200Swap Exact Token...239250322022-01-19 23:46:10122 days 5 hrs ago0x36a90080f9277853d9017b28bdd0b07b0e55c41fOUT QuickSwap: Router0 MATIC0.010027358001 40.933839536
0x62e2ad41614d9d470a3be5a73a927b09e27e8d3722aa1e4e6f3055470fbaf752Swap Exact Token...239250112022-01-19 23:45:28122 days 5 hrs ago0x36a90080f9277853d9017b28bdd0b07b0e55c41fOUT QuickSwap: Router0 MATIC0.007485111293 44.562456724
0xe2ba080d47316686baee1e48c5b1898190a79ab4abf9c13f1896c0465f003ab5Swap Exact Token...239249852022-01-19 23:44:32122 days 5 hrs ago0x36a90080f9277853d9017b28bdd0b07b0e55c41fOUT QuickSwap: Router0 MATIC0.010061544589 44.544351966
[ Download CSV Export 
Latest 6 internal transactions
Parent Txn Hash Block From To Value
0x187e5a2383aa59a5446eee62843757dbdd6ac74c9049142c6223fb64293ea18c237238972022-01-14 21:52:02127 days 7 hrs ago 0x5c6ec38fb0e2609672bdf628b1fd605a523e59230x36a90080f9277853d9017b28bdd0b07b0e55c41f628.740338930062347692 MATIC
0xc8a2936357cbf5107590b9a08c4d0c352e0a5cdc04313b0582475dfbe2ab2ade237238482022-01-14 21:50:24127 days 7 hrs ago Polygon: WMATIC Token0x36a90080f9277853d9017b28bdd0b07b0e55c41f762.692269236647086498 MATIC
0x2a048394250935f3beb7aba4420ec01c1617b1061955bce34dcc600028dc940f237237632022-01-14 21:47:26127 days 7 hrs ago 0x: Exchange Proxy Flash Wallet0x36a90080f9277853d9017b28bdd0b07b0e55c41f435.807774945674840755 MATIC
0x3e2442f7e8c349c7bda242343e7161425bcdcc761bec9d206a3c69e14c951196237237312022-01-14 21:46:22127 days 7 hrs ago 0x: Exchange Proxy Flash Wallet0x36a90080f9277853d9017b28bdd0b07b0e55c41f451.940662006647869428 MATIC
0xba1a6f8144c96cc88c3919ce330570734ae94a276e3cb2f2abb1648bfaf65164237235222022-01-14 21:39:12127 days 7 hrs ago 0x: Exchange Proxy Flash Wallet0x36a90080f9277853d9017b28bdd0b07b0e55c41f254.717688328685062163 MATIC
0x683db7213e143ed3bef12c1ed125549d40a019e3fead48b8e59a4e3e413b6965237234862022-01-14 21:37:56127 days 7 hrs ago 0x: Exchange Proxy Flash Wallet0x36a90080f9277853d9017b28bdd0b07b0e55c41f69.825134693521590649 MATIC
[ Download CSV Export 
Loading

Contract Name:
0 MATIC

Compiler Version
0

Optimization Enabled:
0 MATIC

Other Settings:
-NA-
Block Transaction Gas Used Reward
Age Block Fee Address BC Fee Address Voting Power Jailed Incoming
Block Uncle Number Difficulty Gas Used Reward
Loading
Loading
Make sure to use the "Vote Down" button for any spammy posts, and the "Vote Up" for interesting conversations.